AFL1578 EDDM-EKCH
Flight info
| Callsign | AFL1578 |
|---|---|
| Flight time | 1h 14m |
| Altitude | 36000 |
| Route | INPUD2S INPUD Y102 UPALA M726 LASGA DCT BKD DCT LUWIL DCT BERIM/N0439F370 DCT MAKEL N851 GESKA Z711 MONAK MONAK5A |
| Aircraft | A320/M-SDE3FGHIRWY/LB1 |
Departure
| Time | 2026-05-07 20:00 |
|---|---|
| Airport | Munich Airport (EDDM) |
Arrival
| Time | 2026-05-07 21:14 |
|---|---|
| Airport | Copenhagen Kastrup Airport (EKCH) |
| Time | Latitude | Longitude | Altitude | Speed | Heading |
|---|---|---|---|---|---|
| 2026-05-07 19:24 | 48.35142 | 11.77709 | 1487 ft | 0 kts | 263° |
| 2026-05-07 19:45 | 48.35143 | 11.77724 | 1473 ft | 3 kts | 265° |
| 2026-05-07 19:45 | 48.35144 | 11.77755 | 1480 ft | 3 kts | 273° |
| 2026-05-07 19:46 | 48.35141 | 11.77784 | 1472 ft | 3 kts | 292° |
| 2026-05-07 19:46 | 48.35132 | 11.77806 | 1471 ft | 2 kts | 341° |
| 2026-05-07 19:46 | 48.35127 | 11.77809 | 1473 ft | 0 kts | 353° |
| 2026-05-07 19:51 | 48.35139 | 11.77804 | 1471 ft | 6 kts | 346° |
| 2026-05-07 19:51 | 48.35220 | 11.77778 | 1483 ft | 17 kts | 352° |
| 2026-05-07 19:51 | 48.35371 | 11.77751 | 1485 ft | 26 kts | 353° |
| 2026-05-07 19:52 | 48.35576 | 11.77717 | 1485 ft | 33 kts | 354° |
| 2026-05-07 19:52 | 48.35757 | 11.77698 | 1485 ft | 12 kts | 12° |
| 2026-05-07 19:52 | 48.35772 | 11.77702 | 1485 ft | 0 kts | 11° |
| 2026-05-07 19:52 | 48.35775 | 11.77703 | 1470 ft | 4 kts | 11° |
| 2026-05-07 19:53 | 48.35862 | 11.77693 | 1485 ft | 20 kts | 353° |
| 2026-05-07 19:53 | 48.36019 | 11.77668 | 1483 ft | 24 kts | 353° |
| 2026-05-07 19:53 | 48.36082 | 11.77742 | 1481 ft | 8 kts | 94° |
| 2026-05-07 19:53 | 48.36088 | 11.77833 | 1476 ft | 13 kts | 84° |
| 2026-05-07 19:54 | 48.36103 | 11.78035 | 1481 ft | 25 kts | 83° |
| 2026-05-07 19:54 | 48.36128 | 11.78345 | 1485 ft | 34 kts | 83° |
| 2026-05-07 19:54 | 48.36158 | 11.78736 | 1485 ft | 41 kts | 83° |
| 2026-05-07 19:54 | 48.36194 | 11.79183 | 1480 ft | 44 kts | 84° |
| 2026-05-07 19:55 | 48.36227 | 11.79626 | 1482 ft | 41 kts | 83° |
| 2026-05-07 19:55 | 48.36258 | 11.80046 | 1485 ft | 39 kts | 83° |
| 2026-05-07 19:55 | 48.36290 | 11.80446 | 1485 ft | 38 kts | 84° |
| 2026-05-07 19:55 | 48.36319 | 11.80831 | 1482 ft | 36 kts | 83° |
| 2026-05-07 19:56 | 48.36347 | 11.81205 | 1485 ft | 35 kts | 83° |
| 2026-05-07 19:56 | 48.36375 | 11.81563 | 1481 ft | 35 kts | 83° |
| 2026-05-07 19:56 | 48.36398 | 11.81904 | 1485 ft | 27 kts | 93° |
| 2026-05-07 19:56 | 48.36463 | 11.82000 | 1473 ft | 15 kts | 353° |
| 2026-05-07 19:57 | 48.36563 | 11.81982 | 1475 ft | 5 kts | 353° |
| 2026-05-07 19:57 | 48.36564 | 11.81981 | 1475 ft | 0 kts | 353° |
| 2026-05-07 19:58 | 48.36578 | 11.81979 | 1482 ft | 9 kts | 353° |
| 2026-05-07 19:58 | 48.36664 | 11.81902 | 1476 ft | 16 kts | 287° |
| 2026-05-07 19:58 | 48.36662 | 11.81779 | 1481 ft | 0 kts | 263° |
| 2026-05-07 19:59 | 48.36645 | 11.81545 | 1483 ft | 59 kts | 264° |
| 2026-05-07 19:59 | 48.36572 | 11.80593 | 1485 ft | 122 kts | 263° |
| 2026-05-07 19:59 | 48.36453 | 11.79066 | 1480 ft | 171 kts | 263° |
| 2026-05-07 19:59 | 48.36304 | 11.77198 | 1947 ft | 175 kts | 263° |
| 2026-05-07 20:00 | 48.36162 | 11.75376 | 2671 ft | 176 kts | 265° |
| 2026-05-07 20:00 | 48.36030 | 11.73543 | 3315 ft | 179 kts | 264° |
| 2026-05-07 20:00 | 48.35890 | 11.71614 | 3582 ft | 199 kts | 264° |
| 2026-05-07 20:00 | 48.35727 | 11.69428 | 3803 ft | 221 kts | 264° |
| 2026-05-07 20:01 | 48.35889 | 11.67096 | 4291 ft | 230 kts | 297° |
| 2026-05-07 20:01 | 48.37002 | 11.65334 | 4801 ft | 247 kts | 331° |
| 2026-05-07 20:01 | 48.38682 | 11.64437 | 5286 ft | 264 kts | 346° |
| 2026-05-07 20:01 | 48.40515 | 11.63967 | 6050 ft | 269 kts | 350° |
| 2026-05-07 20:02 | 48.42384 | 11.63614 | 6849 ft | 272 kts | 350° |
| 2026-05-07 20:02 | 48.44274 | 11.63244 | 7620 ft | 275 kts | 349° |
| 2026-05-07 20:02 | 48.46179 | 11.62819 | 8399 ft | 279 kts | 347° |
| 2026-05-07 20:02 | 48.48103 | 11.62336 | 9188 ft | 282 kts | 346° |
| 2026-05-07 20:03 | 48.50019 | 11.61814 | 9946 ft | 285 kts | 345° |
| 2026-05-07 20:03 | 48.51973 | 11.61250 | 10640 ft | 288 kts | 345° |
| 2026-05-07 20:03 | 48.53955 | 11.60663 | 11344 ft | 291 kts | 345° |
| 2026-05-07 20:03 | 48.55952 | 11.60069 | 12044 ft | 294 kts | 345° |
| 2026-05-07 20:04 | 48.57932 | 11.59247 | 12639 ft | 299 kts | 336° |
| 2026-05-07 20:04 | 48.59956 | 11.58090 | 12791 ft | 322 kts | 336° |
| 2026-05-07 20:04 | 48.62101 | 11.56842 | 13083 ft | 337 kts | 336° |
| 2026-05-07 20:04 | 48.64311 | 11.55551 | 13685 ft | 343 kts | 336° |
| 2026-05-07 20:05 | 48.66550 | 11.54245 | 14292 ft | 347 kts | 336° |
| 2026-05-07 20:05 | 48.68780 | 11.52951 | 14876 ft | 349 kts | 336° |
| 2026-05-07 20:05 | 48.71059 | 11.51630 | 15489 ft | 352 kts | 336° |
| 2026-05-07 20:05 | 48.73354 | 11.50300 | 16093 ft | 354 kts | 336° |
| 2026-05-07 20:06 | 48.75662 | 11.48964 | 16695 ft | 357 kts | 336° |
| 2026-05-07 20:06 | 48.77994 | 11.47613 | 17288 ft | 359 kts | 336° |
| 2026-05-07 20:06 | 48.80332 | 11.46256 | 17879 ft | 362 kts | 336° |
| 2026-05-07 20:06 | 48.82694 | 11.44881 | 18449 ft | 365 kts | 336° |
| 2026-05-07 20:07 | 48.85072 | 11.43495 | 18955 ft | 367 kts | 335° |
| 2026-05-07 20:07 | 48.87465 | 11.42095 | 19460 ft | 370 kts | 336° |
| 2026-05-07 20:07 | 48.89845 | 11.40704 | 19965 ft | 373 kts | 336° |
| 2026-05-07 20:07 | 48.92274 | 11.39286 | 20475 ft | 375 kts | 336° |
| 2026-05-07 20:08 | 48.94723 | 11.37857 | 20972 ft | 378 kts | 336° |
| 2026-05-07 20:08 | 48.97185 | 11.36417 | 21477 ft | 381 kts | 336° |
| 2026-05-07 20:08 | 48.99671 | 11.34962 | 21980 ft | 384 kts | 336° |
| 2026-05-07 20:08 | 49.02170 | 11.33499 | 22464 ft | 386 kts | 336° |
| 2026-05-07 20:09 | 49.04690 | 11.32024 | 22931 ft | 389 kts | 336° |
| 2026-05-07 20:09 | 49.07225 | 11.30535 | 23409 ft | 392 kts | 336° |
| 2026-05-07 20:09 | 49.09779 | 11.29031 | 23838 ft | 395 kts | 336° |
| 2026-05-07 20:10 | 49.14899 | 11.26011 | 24589 ft | 400 kts | 336° |
| 2026-05-07 20:10 | 49.17500 | 11.24470 | 24947 ft | 402 kts | 336° |
| 2026-05-07 20:10 | 49.20149 | 11.23053 | 25298 ft | 406 kts | 343° |
| 2026-05-07 20:10 | 49.22945 | 11.22279 | 25649 ft | 411 kts | 353° |
| 2026-05-07 20:11 | 49.25821 | 11.22178 | 25995 ft | 415 kts | 358° |
| 2026-05-07 20:11 | 49.28720 | 11.22212 | 26351 ft | 417 kts | 358° |
| 2026-05-07 20:11 | 49.31585 | 11.22239 | 26685 ft | 419 kts | 358° |
| 2026-05-07 20:11 | 49.34548 | 11.22259 | 27031 ft | 421 kts | 358° |
| 2026-05-07 20:12 | 49.37441 | 11.22274 | 27367 ft | 422 kts | 358° |
| 2026-05-07 20:12 | 49.40387 | 11.22294 | 27698 ft | 424 kts | 358° |
| 2026-05-07 20:12 | 49.43345 | 11.22320 | 28025 ft | 426 kts | 358° |
| 2026-05-07 20:12 | 49.46312 | 11.22349 | 28364 ft | 427 kts | 358° |
| 2026-05-07 20:13 | 49.49287 | 11.22375 | 28683 ft | 429 kts | 358° |
| 2026-05-07 20:13 | 49.52277 | 11.22399 | 28995 ft | 430 kts | 358° |
| 2026-05-07 20:13 | 49.55277 | 11.22425 | 29302 ft | 432 kts | 358° |
| 2026-05-07 20:13 | 49.58282 | 11.22449 | 29590 ft | 433 kts | 358° |
| 2026-05-07 20:14 | 49.61265 | 11.22459 | 29867 ft | 435 kts | 358° |
| 2026-05-07 20:14 | 49.64297 | 11.22460 | 30123 ft | 437 kts | 358° |
| 2026-05-07 20:14 | 49.67346 | 11.22455 | 30345 ft | 438 kts | 358° |
| 2026-05-07 20:14 | 49.70399 | 11.22451 | 30550 ft | 440 kts | 358° |
| 2026-05-07 20:15 | 49.73465 | 11.22451 | 30749 ft | 442 kts | 358° |
| 2026-05-07 20:15 | 49.76545 | 11.22455 | 30987 ft | 442 kts | 358° |
| 2026-05-07 20:15 | 49.79621 | 11.22467 | 31271 ft | 442 kts | 358° |
| 2026-05-07 20:15 | 49.82691 | 11.22490 | 31537 ft | 442 kts | 358° |
| 2026-05-07 20:16 | 49.85724 | 11.22515 | 31788 ft | 442 kts | 358° |
| 2026-05-07 20:16 | 49.88802 | 11.22542 | 32040 ft | 442 kts | 358° |
| 2026-05-07 20:16 | 49.91871 | 11.22564 | 32306 ft | 442 kts | 358° |
| 2026-05-07 20:16 | 49.94955 | 11.22583 | 32572 ft | 442 kts | 358° |
| 2026-05-07 20:17 | 49.98034 | 11.22599 | 32831 ft | 442 kts | 358° |
| 2026-05-07 20:17 | 50.01112 | 11.22609 | 33094 ft | 442 kts | 358° |
| 2026-05-07 20:17 | 50.04191 | 11.22618 | 33362 ft | 442 kts | 358° |
| 2026-05-07 20:17 | 50.07269 | 11.22630 | 33629 ft | 442 kts | 358° |
| 2026-05-07 20:18 | 50.10305 | 11.22648 | 33888 ft | 442 kts | 358° |
| 2026-05-07 20:18 | 50.13386 | 11.22668 | 34129 ft | 442 kts | 358° |
| 2026-05-07 20:18 | 50.16459 | 11.22689 | 34335 ft | 443 kts | 358° |
| 2026-05-07 20:18 | 50.19547 | 11.22709 | 34535 ft | 443 kts | 358° |
| 2026-05-07 20:19 | 50.22626 | 11.22727 | 34729 ft | 443 kts | 358° |
| 2026-05-07 20:19 | 50.25710 | 11.22746 | 34910 ft | 444 kts | 358° |
| 2026-05-07 20:19 | 50.28799 | 11.22767 | 35094 ft | 444 kts | 358° |
| 2026-05-07 20:19 | 50.31890 | 11.22794 | 35276 ft | 444 kts | 358° |
| 2026-05-07 20:20 | 50.34937 | 11.22815 | 35436 ft | 445 kts | 358° |
| 2026-05-07 20:20 | 50.38032 | 11.22897 | 35608 ft | 445 kts | 0° |
| 2026-05-07 20:20 | 50.41132 | 11.23141 | 35770 ft | 446 kts | 2° |
| 2026-05-07 20:20 | 50.44231 | 11.23507 | 35950 ft | 447 kts | 3° |
| 2026-05-07 20:21 | 50.47326 | 11.23934 | 36064 ft | 448 kts | 3° |
| 2026-05-07 20:21 | 50.53595 | 11.24787 | 36083 ft | 455 kts | 2° |
| 2026-05-07 20:22 | 50.59915 | 11.25537 | 36090 ft | 462 kts | 2° |
| 2026-05-07 20:22 | 50.66350 | 11.26247 | 36094 ft | 466 kts | 2° |
| 2026-05-07 20:23 | 50.72845 | 11.26968 | 36094 ft | 469 kts | 2° |
| 2026-05-07 20:23 | 50.79370 | 11.27703 | 36097 ft | 470 kts | 2° |
| 2026-05-07 20:24 | 50.85897 | 11.28454 | 36105 ft | 471 kts | 2° |
| 2026-05-07 20:24 | 50.92385 | 11.29195 | 36110 ft | 471 kts | 2° |
| 2026-05-07 20:25 | 50.98920 | 11.29949 | 36113 ft | 471 kts | 2° |
| 2026-05-07 20:25 | 51.05458 | 11.30717 | 36116 ft | 471 kts | 2° |
| 2026-05-07 20:26 | 51.11987 | 11.31474 | 36113 ft | 471 kts | 2° |
| 2026-05-07 20:26 | 51.18476 | 11.32228 | 36115 ft | 471 kts | 2° |
| 2026-05-07 20:27 | 51.25003 | 11.32989 | 36115 ft | 471 kts | 2° |
| 2026-05-07 20:27 | 51.31541 | 11.33753 | 36120 ft | 471 kts | 2° |
| 2026-05-07 20:28 | 51.38068 | 11.34504 | 36118 ft | 471 kts | 2° |
| 2026-05-07 20:28 | 51.44608 | 11.35270 | 36120 ft | 471 kts | 3° |
| 2026-05-07 20:29 | 51.51094 | 11.36036 | 36117 ft | 471 kts | 3° |
| 2026-05-07 20:29 | 51.57633 | 11.36811 | 36119 ft | 471 kts | 3° |
| 2026-05-07 20:30 | 51.64164 | 11.37591 | 36121 ft | 471 kts | 3° |
| 2026-05-07 20:30 | 51.70695 | 11.38370 | 36125 ft | 471 kts | 3° |
| 2026-05-07 20:31 | 51.77187 | 11.39151 | 36122 ft | 471 kts | 3° |
| 2026-05-07 20:31 | 51.83718 | 11.39921 | 36119 ft | 471 kts | 3° |
| 2026-05-07 20:32 | 51.90250 | 11.40697 | 36149 ft | 471 kts | 3° |
| 2026-05-07 20:32 | 51.96782 | 11.41479 | 36149 ft | 471 kts | 3° |
| 2026-05-07 20:33 | 52.03276 | 11.42263 | 36141 ft | 471 kts | 3° |
| 2026-05-07 20:33 | 52.09802 | 11.43053 | 36132 ft | 471 kts | 3° |
| 2026-05-07 20:34 | 52.16333 | 11.43851 | 36125 ft | 470 kts | 3° |
| 2026-05-07 20:34 | 52.22856 | 11.44651 | 36125 ft | 470 kts | 3° |
| 2026-05-07 20:35 | 52.29386 | 11.45440 | 36125 ft | 470 kts | 3° |
| 2026-05-07 20:35 | 52.34807 | 11.46100 | 36125 ft | 470 kts | 3° |
| 2026-05-07 20:36 | 52.42389 | 11.47037 | 36124 ft | 470 kts | 3° |
| 2026-05-07 20:36 | 52.48911 | 11.47838 | 36123 ft | 470 kts | 3° |
| 2026-05-07 20:37 | 52.54334 | 11.48503 | 36123 ft | 470 kts | 3° |
| 2026-05-07 20:37 | 52.60858 | 11.49307 | 36126 ft | 470 kts | 3° |
| 2026-05-07 20:38 | 52.68435 | 11.50257 | 36131 ft | 470 kts | 4° |
| 2026-05-07 20:38 | 52.73860 | 11.50933 | 36131 ft | 470 kts | 3° |
| 2026-05-07 20:39 | 52.80379 | 11.51742 | 36134 ft | 470 kts | 4° |
| 2026-05-07 20:39 | 52.87960 | 11.52692 | 36134 ft | 470 kts | 4° |
| 2026-05-07 20:40 | 52.94474 | 11.53507 | 36135 ft | 470 kts | 4° |
| 2026-05-07 20:40 | 52.99893 | 11.54181 | 36132 ft | 470 kts | 4° |
| 2026-05-07 20:41 | 53.06398 | 11.53997 | 36141 ft | 468 kts | 352° |
| 2026-05-07 20:41 | 53.12850 | 11.52563 | 36137 ft | 468 kts | 352° |
| 2026-05-07 20:42 | 53.19301 | 11.51140 | 36137 ft | 468 kts | 352° |
| 2026-05-07 20:42 | 53.25746 | 11.49709 | 36136 ft | 467 kts | 352° |
| 2026-05-07 20:43 | 53.32152 | 11.48287 | 36127 ft | 467 kts | 352° |
| 2026-05-07 20:43 | 53.38600 | 11.46848 | 36140 ft | 467 kts | 352° |
| 2026-05-07 20:44 | 53.45068 | 11.46017 | 36138 ft | 467 kts | 0° |
| 2026-05-07 20:44 | 53.51570 | 11.46207 | 36138 ft | 467 kts | 0° |
| 2026-05-07 20:45 | 53.58075 | 11.46378 | 36143 ft | 467 kts | 0° |
| 2026-05-07 20:45 | 53.64535 | 11.46557 | 36144 ft | 467 kts | 0° |
| 2026-05-07 20:46 | 53.71039 | 11.46778 | 36147 ft | 468 kts | 4° |
| 2026-05-07 20:46 | 53.77406 | 11.48939 | 36141 ft | 468 kts | 15° |
| 2026-05-07 20:47 | 53.83691 | 11.51805 | 36133 ft | 468 kts | 15° |
| 2026-05-07 20:47 | 53.86846 | 11.53238 | 35688 ft | 468 kts | 15° |
| 2026-05-07 20:47 | 53.89943 | 11.54641 | 35130 ft | 466 kts | 15° |
| 2026-05-07 20:47 | 53.93060 | 11.56054 | 34573 ft | 463 kts | 15° |
| 2026-05-07 20:48 | 53.96169 | 11.57467 | 33991 ft | 461 kts | 15° |
| 2026-05-07 20:48 | 53.99262 | 11.58878 | 33404 ft | 460 kts | 15° |
| 2026-05-07 20:48 | 54.02354 | 11.60296 | 32874 ft | 461 kts | 15° |
| 2026-05-07 20:48 | 54.05446 | 11.61718 | 32318 ft | 461 kts | 15° |
| 2026-05-07 20:49 | 54.08547 | 11.63149 | 31776 ft | 462 kts | 15° |
| 2026-05-07 20:49 | 54.11656 | 11.64582 | 31226 ft | 464 kts | 15° |
| 2026-05-07 20:49 | 54.14734 | 11.66001 | 30695 ft | 465 kts | 15° |
| 2026-05-07 20:49 | 54.17859 | 11.67442 | 30135 ft | 466 kts | 15° |
| 2026-05-07 20:50 | 54.20995 | 11.68886 | 29576 ft | 467 kts | 15° |
| 2026-05-07 20:50 | 54.24137 | 11.70335 | 29052 ft | 469 kts | 15° |
| 2026-05-07 20:50 | 54.27291 | 11.71791 | 28532 ft | 470 kts | 15° |
| 2026-05-07 20:50 | 54.30455 | 11.73255 | 28017 ft | 471 kts | 15° |
| 2026-05-07 20:51 | 54.33620 | 11.74728 | 27492 ft | 473 kts | 15° |
| 2026-05-07 20:51 | 54.36797 | 11.76215 | 26962 ft | 474 kts | 15° |
| 2026-05-07 20:51 | 54.39981 | 11.77712 | 26420 ft | 474 kts | 15° |
| 2026-05-07 20:51 | 54.43112 | 11.79179 | 25885 ft | 473 kts | 15° |
| 2026-05-07 20:52 | 54.46219 | 11.81021 | 25317 ft | 473 kts | 24° |
| 2026-05-07 20:52 | 54.49216 | 11.83350 | 24739 ft | 471 kts | 24° |
| 2026-05-07 20:52 | 54.52187 | 11.85678 | 24160 ft | 468 kts | 24° |
| 2026-05-07 20:52 | 54.55150 | 11.88017 | 23538 ft | 471 kts | 24° |
| 2026-05-07 20:53 | 54.58121 | 11.90371 | 22923 ft | 470 kts | 24° |
| 2026-05-07 20:53 | 54.61086 | 11.92741 | 22337 ft | 468 kts | 26° |
| 2026-05-07 20:53 | 54.63842 | 11.95651 | 21775 ft | 464 kts | 33° |
| 2026-05-07 20:53 | 54.66519 | 11.98739 | 21204 ft | 461 kts | 33° |
| 2026-05-07 20:54 | 54.69137 | 12.01761 | 20643 ft | 457 kts | 33° |
| 2026-05-07 20:54 | 54.71773 | 12.04811 | 20094 ft | 454 kts | 33° |
| 2026-05-07 20:54 | 54.74389 | 12.07845 | 19544 ft | 451 kts | 33° |
| 2026-05-07 20:54 | 54.76985 | 12.10855 | 19009 ft | 448 kts | 33° |
| 2026-05-07 20:55 | 54.79567 | 12.13850 | 18454 ft | 445 kts | 33° |
| 2026-05-07 20:55 | 54.82127 | 12.16824 | 17873 ft | 442 kts | 33° |
| 2026-05-07 20:55 | 54.84669 | 12.19787 | 17352 ft | 438 kts | 33° |
| 2026-05-07 20:55 | 54.87191 | 12.22730 | 16834 ft | 435 kts | 33° |
| 2026-05-07 20:56 | 54.89689 | 12.25652 | 16321 ft | 432 kts | 33° |
| 2026-05-07 20:56 | 54.92137 | 12.28518 | 15822 ft | 429 kts | 34° |
| 2026-05-07 20:56 | 54.94599 | 12.31404 | 15328 ft | 425 kts | 34° |
| 2026-05-07 20:56 | 54.97046 | 12.34281 | 14827 ft | 422 kts | 34° |
| 2026-05-07 20:57 | 54.99469 | 12.37127 | 14333 ft | 419 kts | 34° |
| 2026-05-07 20:57 | 55.01878 | 12.39948 | 13824 ft | 416 kts | 34° |
| 2026-05-07 20:57 | 55.04269 | 12.42735 | 13314 ft | 412 kts | 34° |
| 2026-05-07 20:57 | 55.06643 | 12.45500 | 12824 ft | 409 kts | 34° |
| 2026-05-07 20:58 | 55.08997 | 12.48246 | 12323 ft | 405 kts | 34° |
| 2026-05-07 20:58 | 55.11332 | 12.50976 | 11841 ft | 402 kts | 34° |
| 2026-05-07 20:58 | 55.13616 | 12.53651 | 11342 ft | 397 kts | 34° |
| 2026-05-07 20:58 | 55.15817 | 12.56238 | 11073 ft | 366 kts | 34° |
| 2026-05-07 20:59 | 55.17842 | 12.58624 | 10904 ft | 336 kts | 34° |
| 2026-05-07 20:59 | 55.19702 | 12.60817 | 10784 ft | 310 kts | 34° |
| 2026-05-07 20:59 | 55.21435 | 12.62862 | 10467 ft | 294 kts | 34° |
| 2026-05-07 20:59 | 55.23113 | 12.64835 | 9903 ft | 288 kts | 33° |
| 2026-05-07 21:00 | 55.24848 | 12.66540 | 9223 ft | 285 kts | 30° |
| 2026-05-07 21:00 | 55.26575 | 12.68203 | 8573 ft | 281 kts | 30° |
| 2026-05-07 21:00 | 55.28259 | 12.69828 | 8249 ft | 274 kts | 30° |
| 2026-05-07 21:00 | 55.29911 | 12.71422 | 7993 ft | 275 kts | 30° |
| 2026-05-07 21:01 | 55.31586 | 12.73043 | 7674 ft | 275 kts | 30° |
| 2026-05-07 21:01 | 55.33337 | 12.74326 | 7316 ft | 273 kts | 12° |
| 2026-05-07 21:01 | 55.35220 | 12.74302 | 6956 ft | 273 kts | 347° |
| 2026-05-07 21:01 | 55.36929 | 12.72916 | 6611 ft | 272 kts | 322° |
| 2026-05-07 21:02 | 55.38219 | 12.70499 | 6254 ft | 272 kts | 309° |
| 2026-05-07 21:02 | 55.39392 | 12.67904 | 5883 ft | 271 kts | 309° |
| 2026-05-07 21:02 | 55.40553 | 12.65321 | 5516 ft | 268 kts | 309° |
| 2026-05-07 21:02 | 55.41686 | 12.62721 | 5162 ft | 266 kts | 303° |
| 2026-05-07 21:03 | 55.42300 | 12.59731 | 4801 ft | 265 kts | 276° |
| 2026-05-07 21:03 | 55.42097 | 12.56572 | 4416 ft | 257 kts | 250° |
| 2026-05-07 21:03 | 55.41178 | 12.53995 | 4052 ft | 245 kts | 224° |
| 2026-05-07 21:03 | 55.39929 | 12.52048 | 3696 ft | 237 kts | 221° |
| 2026-05-07 21:04 | 55.38693 | 12.50160 | 3334 ft | 235 kts | 222° |
| 2026-05-07 21:04 | 55.37467 | 12.48278 | 3042 ft | 233 kts | 222° |
| 2026-05-07 21:04 | 55.36260 | 12.46381 | 3033 ft | 234 kts | 223° |
| 2026-05-07 21:04 | 55.35060 | 12.44461 | 3026 ft | 233 kts | 223° |
| 2026-05-07 21:05 | 55.33862 | 12.42534 | 3026 ft | 233 kts | 223° |
| 2026-05-07 21:05 | 55.32665 | 12.40611 | 3027 ft | 233 kts | 223° |
| 2026-05-07 21:05 | 55.31467 | 12.38688 | 3022 ft | 233 kts | 223° |
| 2026-05-07 21:05 | 55.30284 | 12.36793 | 3024 ft | 233 kts | 223° |
| 2026-05-07 21:06 | 55.29151 | 12.34768 | 3014 ft | 232 kts | 238° |
| 2026-05-07 21:06 | 55.28668 | 12.32129 | 3027 ft | 228 kts | 272° |
| 2026-05-07 21:06 | 55.29062 | 12.29491 | 3031 ft | 225 kts | 299° |
| 2026-05-07 21:06 | 55.29880 | 12.27150 | 3029 ft | 225 kts | 308° |
| 2026-05-07 21:07 | 55.30987 | 12.25245 | 3022 ft | 223 kts | 327° |
| 2026-05-07 21:07 | 55.32380 | 12.24088 | 3029 ft | 222 kts | 346° |
| 2026-05-07 21:07 | 55.33908 | 12.23797 | 3030 ft | 222 kts | 4° |
| 2026-05-07 21:07 | 55.35405 | 12.24407 | 3031 ft | 222 kts | 23° |
| 2026-05-07 21:08 | 55.36686 | 12.25839 | 3034 ft | 223 kts | 40° |
| 2026-05-07 21:08 | 55.37860 | 12.27627 | 3032 ft | 223 kts | 40° |
| 2026-05-07 21:08 | 55.39034 | 12.29414 | 3030 ft | 223 kts | 40° |
| 2026-05-07 21:08 | 55.40203 | 12.31195 | 3031 ft | 223 kts | 40° |
| 2026-05-07 21:09 | 55.41375 | 12.32981 | 3036 ft | 223 kts | 40° |
| 2026-05-07 21:09 | 55.42511 | 12.34714 | 3027 ft | 223 kts | 40° |
| 2026-05-07 21:09 | 55.43684 | 12.36503 | 3031 ft | 223 kts | 40° |
| 2026-05-07 21:09 | 55.44857 | 12.38295 | 3033 ft | 223 kts | 40° |
| 2026-05-07 21:10 | 55.46014 | 12.40063 | 3034 ft | 223 kts | 40° |
| 2026-05-07 21:10 | 55.47151 | 12.41804 | 3025 ft | 209 kts | 40° |
| 2026-05-07 21:10 | 55.48216 | 12.43436 | 2909 ft | 199 kts | 39° |
| 2026-05-07 21:10 | 55.49244 | 12.45011 | 2715 ft | 189 kts | 39° |
| 2026-05-07 21:11 | 55.50204 | 12.46482 | 2451 ft | 178 kts | 39° |
| 2026-05-07 21:11 | 55.51105 | 12.47866 | 2220 ft | 163 kts | 40° |
| 2026-05-07 21:11 | 55.52692 | 12.50301 | 1801 ft | 145 kts | 39° |
| 2026-05-07 21:12 | 55.53436 | 12.51445 | 1600 ft | 143 kts | 39° |
| 2026-05-07 21:12 | 55.54182 | 12.52591 | 1415 ft | 142 kts | 40° |
| 2026-05-07 21:12 | 55.54923 | 12.53732 | 1215 ft | 141 kts | 39° |
| 2026-05-07 21:12 | 55.55657 | 12.54866 | 1022 ft | 140 kts | 40° |
| 2026-05-07 21:13 | 55.56391 | 12.55996 | 820 ft | 139 kts | 40° |
| 2026-05-07 21:13 | 55.57120 | 12.57116 | 619 ft | 139 kts | 39° |
| 2026-05-07 21:13 | 55.57846 | 12.58232 | 430 ft | 138 kts | 40° |
| 2026-05-07 21:13 | 55.58566 | 12.59345 | 241 ft | 137 kts | 40° |
| 2026-05-07 21:14 | 55.59281 | 12.60443 | 64 ft | 135 kts | 39° |
| 2026-05-07 21:14 | 55.59934 | 12.61446 | 24 ft | 105 kts | 41° |
| 2026-05-07 21:14 | 55.60353 | 12.62095 | 23 ft | 56 kts | 41° |
| 2026-05-07 21:14 | 55.60565 | 12.62421 | 26 ft | 35 kts | 42° |
| 2026-05-07 21:15 | 55.60744 | 12.62692 | 27 ft | 33 kts | 38° |
| 2026-05-07 21:15 | 55.60934 | 12.62854 | 25 ft | 27 kts | 13° |
| 2026-05-07 21:15 | 55.61039 | 12.62891 | 24 ft | 0 kts | 11° |
| 2026-05-07 21:16 | 55.61046 | 12.62893 | 24 ft | 3 kts | 11° |
| 2026-05-07 21:16 | 55.61094 | 12.62909 | 24 ft | 11 kts | 11° |
| 2026-05-07 21:16 | 55.61179 | 12.62995 | 26 ft | 17 kts | 41° |
| 2026-05-07 21:16 | 55.61285 | 12.63160 | 25 ft | 24 kts | 42° |
| 2026-05-07 21:17 | 55.61416 | 12.63366 | 24 ft | 26 kts | 41° |
| 2026-05-07 21:17 | 55.61553 | 12.63577 | 25 ft | 26 kts | 40° |
| 2026-05-07 21:17 | 55.61693 | 12.63791 | 24 ft | 27 kts | 40° |
| 2026-05-07 21:17 | 55.61834 | 12.64010 | 24 ft | 27 kts | 42° |
| 2026-05-07 21:18 | 55.61979 | 12.64165 | 25 ft | 26 kts | 25° |
| 2026-05-07 21:18 | 55.62158 | 12.64310 | 23 ft | 31 kts | 24° |
| 2026-05-07 21:18 | 55.62344 | 12.64428 | 23 ft | 30 kts | 14° |
| 2026-05-07 21:18 | 55.62493 | 12.64485 | 24 ft | 13 kts | 341° |
| 2026-05-07 21:19 | 55.62556 | 12.64322 | 25 ft | 20 kts | 305° |
| 2026-05-07 21:19 | 55.62620 | 12.64274 | 25 ft | 6 kts | 51° |
| 2026-05-07 21:19 | 55.62683 | 12.64324 | 24 ft | 11 kts | 20° |
| 2026-05-07 21:19 | 55.62720 | 12.64385 | 24 ft | 0 kts | 104° |
| 2026-05-07 21:20 | 55.62715 | 12.64435 | 24 ft | 6 kts | 101° |
| 2026-05-07 21:20 | 55.62712 | 12.64463 | 24 ft | 0 kts | 101° |